createdAt,value
2023-06-16T00:00:37.491Z,35.57
2023-06-16T00:03:04.230Z,35.40
2023-06-16T00:05:31.238Z,34.53
2023-06-16T00:08:02.034Z,33.90
2023-06-16T00:10:28.969Z,32.03
2023-06-16T00:12:55.510Z,32.17
2023-06-16T00:15:22.119Z,33.70
2023-06-16T00:17:51.088Z,31.77
2023-06-16T00:20:22.512Z,35.83
2023-06-16T00:22:49.610Z,34.20
2023-06-16T00:25:17.856Z,31.27
2023-06-16T00:27:44.514Z,33.87
2023-06-16T00:30:11.542Z,32.83
2023-06-16T00:32:38.187Z,34.27
2023-06-16T00:35:05.039Z,34.07
2023-06-16T00:37:31.551Z,33.57
2023-06-16T00:39:58.064Z,34.37
2023-06-16T00:42:24.595Z,34.10
2023-06-16T00:44:51.088Z,36.50
2023-06-16T00:47:17.768Z,35.17
2023-06-16T00:49:44.438Z,34.87
2023-06-16T00:52:14.292Z,33.73
2023-06-16T00:54:40.915Z,33.37
2023-06-16T00:57:08.013Z,36.73
2023-06-16T00:59:34.841Z,35.00
2023-06-16T01:02:01.887Z,35.63
2023-06-16T01:04:29.456Z,35.63
2023-06-16T01:07:00.524Z,33.47
2023-06-16T01:09:54.351Z,36.10
2023-06-16T01:12:39.562Z,33.00
2023-06-16T01:15:10.375Z,35.73
2023-06-16T01:17:44.857Z,33.47
2023-06-16T01:20:16.198Z,33.13
2023-06-16T01:23:07.704Z,35.50
2023-06-16T01:25:39.442Z,37.37
2023-06-16T01:28:08.909Z,35.37
2023-06-16T01:30:36.411Z,35.40
2023-06-16T01:33:03.839Z,36.57
2023-06-16T01:35:31.344Z,35.30
2023-06-16T01:37:58.369Z,35.80
2023-06-16T01:40:25.468Z,37.10
2023-06-16T01:42:52.883Z,36.50
2023-06-16T01:45:20.170Z,34.97
2023-06-16T01:47:47.064Z,36.90
2023-06-16T01:50:14.200Z,40.73
2023-06-16T01:52:40.837Z,36.30
2023-06-16T01:55:08.016Z,37.63
2023-06-16T01:57:35.585Z,43.13
2023-06-16T02:00:18.539Z,43.70
2023-06-16T02:02:55.549Z,38.47
2023-06-16T02:05:25.050Z,48.80
2023-06-16T02:07:53.875Z,49.43
2023-06-16T02:10:22.201Z,53.17
2023-06-16T02:12:49.670Z,49.70
2023-06-16T02:15:20.234Z,53.00
2023-06-16T02:17:47.349Z,59.13
2023-06-16T02:20:13.912Z,58.10
2023-06-16T02:22:40.688Z,62.27
2023-06-16T02:25:07.716Z,65.73
2023-06-16T02:27:34.278Z,62.77
2023-06-16T02:30:00.879Z,63.87
2023-06-16T02:32:28.122Z,66.57
2023-06-16T02:34:57.259Z,54.33
2023-06-16T02:37:26.561Z,57.77
2023-06-16T02:39:53.081Z,55.60
2023-06-16T02:42:19.600Z,51.43
2023-06-16T02:44:46.151Z,47.67
2023-06-16T02:47:12.709Z,44.03
2023-06-16T02:49:43.926Z,43.50
2023-06-16T02:52:13.657Z,38.70
2023-06-16T02:54:41.460Z,36.20
2023-06-16T02:57:08.638Z,36.23
2023-06-16T02:59:35.874Z,36.97
2023-06-16T03:02:02.574Z,35.67
2023-06-16T03:04:29.180Z,34.60
2023-06-16T03:06:58.993Z,34.57
2023-06-16T03:09:26.458Z,33.17
2023-06-16T03:11:55.525Z,34.33
2023-06-16T03:14:22.679Z,31.43
2023-06-16T03:16:49.578Z,37.30
2023-06-16T03:19:16.864Z,35.43
2023-06-16T03:21:44.157Z,36.23
2023-06-16T03:24:11.001Z,38.77
2023-06-16T03:26:38.497Z,39.50
2023-06-16T03:29:06.675Z,41.30
2023-06-16T03:31:33.183Z,40.07
2023-06-16T03:34:07.392Z,47.53
2023-06-16T03:36:42.114Z,39.90
2023-06-16T03:39:08.683Z,41.63
2023-06-16T03:41:35.787Z,41.70
2023-06-16T03:44:05.005Z,43.97
2023-06-16T03:46:34.411Z,42.40
2023-06-16T03:49:01.193Z,46.63
2023-06-16T03:51:27.732Z,41.60
2023-06-16T03:53:54.258Z,43.97
2023-06-16T03:56:21.060Z,47.20
2023-06-16T03:58:49.672Z,48.13
2023-06-16T04:01:17.118Z,45.23
2023-06-16T04:03:43.735Z,37.93
2023-06-16T04:06:10.560Z,40.13
2023-06-16T04:08:37.780Z,43.37
2023-06-16T04:11:04.532Z,43.47
2023-06-16T04:13:31.968Z,46.20
2023-06-16T04:15:58.489Z,46.40
2023-06-16T04:18:25.236Z,40.87
2023-06-16T04:20:52.118Z,42.43
2023-06-16T04:23:18.962Z,44.63
2023-06-16T04:25:46.112Z,49.80
2023-06-16T04:28:15.385Z,41.93
2023-06-16T04:30:43.288Z,46.40
2023-06-16T04:33:09.893Z,53.23
2023-06-16T04:35:36.685Z,47.53
2023-06-16T04:38:04.233Z,45.47
2023-06-16T04:40:33.644Z,40.43
2023-06-16T04:43:00.156Z,45.37
2023-06-16T04:45:27.149Z,46.13
2023-06-16T04:47:53.774Z,40.33
2023-06-16T04:50:20.818Z,38.30
2023-06-16T04:52:51.140Z,41.37
2023-06-16T04:55:18.117Z,44.20
2023-06-16T04:57:45.102Z,41.83
2023-06-16T05:00:12.122Z,41.27
2023-06-16T05:02:38.922Z,42.07
2023-06-16T05:05:06.042Z,38.50
2023-06-16T05:07:32.811Z,41.97
2023-06-16T05:09:59.590Z,37.57
2023-06-16T05:12:27.225Z,45.87
2023-06-16T05:14:53.810Z,47.77
2023-06-16T05:17:20.756Z,47.87
2023-06-16T05:19:47.320Z,48.23
2023-06-16T05:22:14.516Z,47.03
2023-06-16T05:24:41.132Z,47.17
2023-06-16T05:27:07.748Z,49.40
2023-06-16T05:29:34.247Z,49.00
2023-06-16T05:32:00.823Z,48.47
2023-06-16T05:34:27.409Z,46.23
2023-06-16T05:36:53.918Z,48.07
2023-06-16T05:39:20.686Z,48.10
2023-06-16T05:41:50.289Z,49.07
2023-06-16T05:44:16.779Z,48.53
2023-06-16T05:46:43.299Z,50.23
2023-06-16T05:49:09.840Z,48.20
2023-06-16T05:51:36.539Z,48.20
2023-06-16T05:54:03.098Z,48.53
2023-06-16T05:56:29.686Z,51.67
2023-06-16T05:58:56.400Z,55.40
2023-06-16T06:01:22.945Z,56.00
2023-06-16T06:03:49.744Z,56.30
2023-06-16T06:06:16.601Z,56.47
2023-06-16T06:08:43.138Z,52.87
2023-06-16T06:11:09.649Z,51.60
2023-06-16T06:13:36.195Z,56.47
2023-06-16T06:16:03.335Z,58.47
2023-06-16T06:18:30.093Z,51.60
2023-06-16T06:20:56.660Z,59.27
2023-06-16T06:23:23.239Z,59.57
2023-06-16T06:25:49.997Z,50.47
2023-06-16T06:28:16.651Z,51.23
2023-06-16T06:30:43.195Z,53.33
2023-06-16T06:33:09.798Z,53.57
2023-06-16T06:35:36.600Z,54.70
2023-06-16T06:38:04.356Z,58.63
2023-06-16T06:40:33.156Z,52.70
2023-06-16T06:43:03.962Z,56.50
2023-06-16T06:45:30.568Z,55.47
2023-06-16T06:47:57.284Z,60.10
2023-06-16T06:50:23.894Z,61.27
2023-06-16T06:52:50.642Z,58.17
2023-06-16T06:55:17.288Z,59.83
2023-06-16T06:57:43.845Z,69.00
2023-06-16T07:00:11.365Z,60.03
2023-06-16T07:02:38.094Z,60.77
2023-06-16T07:05:05.045Z,58.93
2023-06-16T07:07:31.610Z,63.43
2023-06-16T07:09:58.101Z,56.73
2023-06-16T07:12:24.614Z,63.40
2023-06-16T07:14:51.119Z,62.87
2023-06-16T07:17:17.676Z,73.60
2023-06-16T07:19:44.312Z,71.63
2023-06-16T07:22:11.116Z,78.23
2023-06-16T07:24:37.687Z,80.57
2023-06-16T07:27:04.705Z,76.67
2023-06-16T07:29:31.389Z,75.60
2023-06-16T07:31:58.036Z,79.87
2023-06-16T07:34:24.750Z,80.97
2023-06-16T07:36:51.395Z,77.80
2023-06-16T07:39:18.516Z,74.50
2023-06-16T07:41:45.268Z,73.27
2023-06-16T07:44:12.386Z,66.67
2023-06-16T07:46:39.791Z,63.03
2023-06-16T07:49:06.521Z,66.80
2023-06-16T07:51:33.060Z,66.23
2023-06-16T07:53:59.715Z,64.43
2023-06-16T07:56:26.263Z,62.50
2023-06-16T07:58:52.769Z,72.60
2023-06-16T08:01:19.303Z,66.63
2023-06-16T08:03:48.192Z,57.70
2023-06-16T08:06:16.580Z,65.30
2023-06-16T08:08:43.257Z,63.00
2023-06-16T08:11:09.855Z,64.53
2023-06-16T08:13:36.428Z,65.70
2023-06-16T08:16:03.139Z,61.77
2023-06-16T08:18:29.737Z,61.17
2023-06-16T08:20:56.313Z,57.93
2023-06-16T08:23:22.861Z,61.43
2023-06-16T08:25:50.653Z,61.57
2023-06-16T08:28:17.216Z,57.07
2023-06-16T08:30:43.799Z,64.17
2023-06-16T08:33:11.074Z,63.30
2023-06-16T08:35:37.663Z,72.77
2023-06-16T08:38:04.275Z,72.00
2023-06-16T08:40:31.773Z,82.60
2023-06-16T08:42:59.469Z,83.63
2023-06-16T08:45:26.940Z,73.60
2023-06-16T08:47:53.503Z,62.47
2023-06-16T08:50:24.035Z,59.87
2023-06-16T08:52:54.205Z,56.73
2023-06-16T08:55:21.552Z,51.00
2023-06-16T08:57:49.648Z,45.23
2023-06-16T09:00:17.369Z,25.40
2023-06-16T09:02:45.362Z,27.07
2023-06-16T09:05:13.093Z,25.27
2023-06-16T09:07:40.758Z,27.23
2023-06-16T09:10:08.892Z,25.47
2023-06-16T09:12:36.422Z,26.33
2023-06-16T09:15:07.768Z,26.67
2023-06-16T09:17:34.833Z,29.30
2023-06-16T09:20:03.001Z,38.73
2023-06-16T09:22:30.209Z,35.07
2023-06-16T09:24:58.163Z,42.03
2023-06-16T09:27:42.413Z,33.10
2023-06-16T09:30:10.014Z,33.17
2023-06-16T09:32:40.387Z,28.87
2023-06-16T09:35:24.313Z,32.03
2023-06-16T09:37:56.499Z,34.03
2023-06-16T09:40:27.098Z,32.07
2023-06-16T09:42:53.674Z,42.80
2023-06-16T09:45:23.035Z,35.20
2023-06-16T09:47:50.467Z,33.23
2023-06-16T09:50:18.698Z,35.80
2023-06-16T09:52:47.732Z,46.80
2023-06-16T09:55:14.650Z,36.33
2023-06-16T09:57:46.453Z,41.33
2023-06-16T10:00:18.591Z,53.73
2023-06-16T10:02:47.353Z,45.23
2023-06-16T10:05:17.230Z,52.20
2023-06-16T10:07:45.982Z,46.67
2023-06-16T10:10:12.930Z,55.27
2023-06-16T10:12:50.703Z,83.30
2023-06-16T10:15:21.648Z,40.97
2023-06-16T10:17:48.780Z,62.93
2023-06-16T10:20:17.498Z,56.73
2023-06-16T10:22:44.687Z,46.77
2023-06-16T10:25:11.727Z,45.40
2023-06-16T10:27:40.736Z,56.53
2023-06-16T10:30:10.454Z,55.60
2023-06-16T10:32:38.646Z,68.20
2023-06-16T10:35:08.646Z,56.93
2023-06-16T10:37:35.184Z,55.37
2023-06-16T10:40:14.117Z,53.00
2023-06-16T10:42:41.495Z,61.43
2023-06-16T10:45:28.442Z,60.43
2023-06-16T10:47:57.231Z,57.87
2023-06-16T10:50:40.067Z,60.60
2023-06-16T10:53:19.688Z,60.50
2023-06-16T10:55:46.759Z,55.97
2023-06-16T10:58:22.401Z,60.07
2023-06-16T11:01:06.808Z,46.60
2023-06-16T11:03:38.844Z,45.30
2023-06-16T11:06:06.720Z,41.57
2023-06-16T11:08:49.288Z,36.53
2023-06-16T11:11:16.830Z,45.20
2023-06-16T11:13:43.545Z,33.20
2023-06-16T11:16:10.130Z,40.53
2023-06-16T11:18:36.906Z,45.13
2023-06-16T11:21:06.259Z,34.20
2023-06-16T11:23:33.248Z,43.77
2023-06-16T11:26:27.775Z,56.37
2023-06-16T11:28:54.284Z,41.20
2023-06-16T11:31:22.231Z,40.83
2023-06-16T11:33:48.987Z,62.20
2023-06-16T11:36:20.940Z,57.77
2023-06-16T11:38:49.628Z,45.07
2023-06-16T11:41:24.196Z,50.70
2023-06-16T11:43:52.284Z,50.77
2023-06-16T11:46:29.894Z,74.90
2023-06-16T11:48:56.578Z,49.17
2023-06-16T11:51:24.565Z,60.60
2023-06-16T11:53:52.093Z,126.93
2023-06-16T11:56:18.740Z,31.17
2023-06-16T11:58:46.998Z,21.13
2023-06-16T12:01:16.984Z,39.17
2023-06-16T12:04:03.602Z,21.43
2023-06-16T12:06:33.198Z,33.00
2023-06-16T12:09:00.970Z,35.43
2023-06-16T12:11:29.675Z,35.97
2023-06-16T12:13:58.231Z,58.27
2023-06-16T12:16:25.211Z,30.53
2023-06-16T12:18:52.537Z,47.73
2023-06-16T12:21:29.003Z,63.97
2023-06-16T12:23:58.427Z,40.93
2023-06-16T12:26:36.581Z,35.87
2023-06-16T12:29:09.633Z,33.57
2023-06-16T12:31:36.473Z,55.17
2023-06-16T12:34:03.327Z,41.33
2023-06-16T12:36:29.930Z,34.97
2023-06-16T12:38:57.381Z,35.47
2023-06-16T12:41:27.418Z,58.37
2023-06-16T12:43:54.015Z,45.53
2023-06-16T12:46:21.667Z,34.37
2023-06-16T12:48:48.252Z,26.27
2023-06-16T12:51:15.160Z,33.70
2023-06-16T12:53:46.959Z,35.63
2023-06-16T12:56:15.737Z,39.57
2023-06-16T12:58:42.280Z,47.27
2023-06-16T13:01:11.813Z,50.70
2023-06-16T13:03:42.279Z,56.37
2023-06-16T13:06:08.937Z,32.97
2023-06-16T13:08:35.762Z,49.40
2023-06-16T13:11:02.316Z,39.40
2023-06-16T13:13:28.829Z,57.77
2023-06-16T13:15:55.915Z,71.13
2023-06-16T13:18:22.514Z,66.13
2023-06-16T13:20:49.623Z,109.57
2023-06-16T13:23:16.160Z,100.33
2023-06-16T13:25:42.711Z,56.50
2023-06-16T13:28:09.320Z,85.87
2023-06-16T13:30:36.286Z,81.37
2023-06-16T13:33:02.906Z,81.13
2023-06-16T13:35:29.453Z,138.70
2023-06-16T13:37:56.283Z,89.27
2023-06-16T13:40:22.999Z,94.10
2023-06-16T13:42:49.598Z,91.20
2023-06-16T13:45:16.111Z,217.67
2023-06-16T13:47:42.702Z,196.93
2023-06-16T13:50:09.943Z,160.03
2023-06-16T13:52:37.702Z,119.90
2023-06-16T13:55:04.872Z,205.93
2023-06-16T13:57:31.500Z,129.10
2023-06-16T14:00:00.108Z,115.17
2023-06-16T14:02:27.041Z,119.27
2023-06-16T14:04:53.741Z,98.90
2023-06-16T14:07:20.442Z,110.20
2023-06-16T14:09:47.086Z,109.10
2023-06-16T14:12:13.649Z,94.83
2023-06-16T14:14:40.334Z,100.43
2023-06-16T14:17:06.955Z,164.13
2023-06-16T14:19:35.613Z,100.53
2023-06-16T14:22:02.440Z,102.87
2023-06-16T14:24:30.278Z,87.53
2023-06-16T14:26:56.870Z,79.23
2023-06-16T14:29:23.346Z,78.53
2023-06-16T14:31:49.860Z,73.83
2023-06-16T14:34:16.374Z,65.50
2023-06-16T14:36:42.944Z,86.43
2023-06-16T14:39:10.437Z,61.27
2023-06-16T14:41:38.250Z,64.53
2023-06-16T14:44:04.971Z,61.07
2023-06-16T14:46:31.633Z,70.20
2023-06-16T14:48:58.165Z,49.90
2023-06-16T14:51:24.675Z,79.40
2023-06-16T14:53:51.170Z,75.40
2023-06-16T14:56:18.754Z,51.80
2023-06-16T14:58:45.296Z,43.77
2023-06-16T15:01:11.824Z,43.90
2023-06-16T15:03:38.497Z,73.67
2023-06-16T15:06:05.160Z,33.27
2023-06-16T15:08:31.747Z,30.93
2023-06-16T15:10:58.284Z,35.40
2023-06-16T15:13:24.930Z,34.80
2023-06-16T15:15:51.523Z,33.20
2023-06-16T15:18:18.154Z,42.67
2023-06-16T15:20:44.706Z,52.50
2023-06-16T15:23:11.465Z,38.97
2023-06-16T15:25:38.030Z,61.27
2023-06-16T15:28:12.256Z,29.43
2023-06-16T15:30:39.157Z,32.07
2023-06-16T15:33:06.022Z,31.87
2023-06-16T15:35:32.635Z,34.40
2023-06-16T15:37:59.150Z,36.30
2023-06-16T15:40:25.888Z,58.67
2023-06-16T15:43:07.638Z,50.60
2023-06-16T15:45:34.212Z,45.90
2023-06-16T15:48:01.032Z,35.93
2023-06-16T15:50:28.400Z,36.50
2023-06-16T15:52:55.029Z,47.77
2023-06-16T15:55:21.892Z,29.40
2023-06-16T15:57:48.389Z,33.33
2023-06-16T16:00:15.263Z,36.73
2023-06-16T16:02:41.947Z,30.80
2023-06-16T16:05:08.588Z,40.40
2023-06-16T16:07:35.174Z,31.87
2023-06-16T16:10:02.148Z,43.10
2023-06-16T16:12:29.955Z,49.03
2023-06-16T16:14:57.548Z,42.93
2023-06-16T16:17:26.239Z,33.80
2023-06-16T16:19:52.773Z,33.60
2023-06-16T16:22:19.300Z,39.40
2023-06-16T16:24:46.648Z,34.83
2023-06-16T16:27:13.362Z,36.80
2023-06-16T16:29:39.894Z,32.20
2023-06-16T16:32:07.855Z,32.63
2023-06-16T16:34:34.583Z,28.50
2023-06-16T16:37:02.059Z,28.40
2023-06-16T16:39:29.201Z,28.67
2023-06-16T16:41:56.656Z,26.70
2023-06-16T16:44:25.175Z,26.83
2023-06-16T16:46:52.525Z,28.27
2023-06-16T16:49:19.449Z,25.23
2023-06-16T16:51:46.052Z,29.53
2023-06-16T16:54:12.600Z,30.43
2023-06-16T16:56:39.079Z,24.83
2023-06-16T16:59:05.637Z,24.53
2023-06-16T17:01:32.272Z,24.13
2023-06-16T17:03:58.786Z,22.50
2023-06-16T17:06:25.408Z,24.37
2023-06-16T17:08:51.928Z,19.43
2023-06-16T17:11:18.458Z,27.07
2023-06-16T17:13:44.969Z,21.43
2023-06-16T17:16:13.827Z,29.00
2023-06-16T17:18:40.414Z,23.53
2023-06-16T17:21:06.917Z,35.47
2023-06-16T17:23:34.139Z,42.47
2023-06-16T17:26:01.886Z,29.70
2023-06-16T17:28:28.512Z,26.80
2023-06-16T17:30:55.105Z,40.03
2023-06-16T17:33:22.099Z,26.80
2023-06-16T17:35:48.996Z,36.37
2023-06-16T17:38:15.669Z,54.77
2023-06-16T17:40:42.191Z,31.63
2023-06-16T17:43:08.710Z,23.87
2023-06-16T17:45:35.193Z,32.67
2023-06-16T17:48:02.118Z,42.70
2023-06-16T17:50:29.387Z,66.47
2023-06-16T17:52:56.825Z,31.87
2023-06-16T17:55:23.462Z,39.27
2023-06-16T17:57:50.007Z,37.33
2023-06-16T18:00:17.200Z,36.00
2023-06-16T18:02:44.243Z,37.10
2023-06-16T18:05:11.164Z,34.47
2023-06-16T18:07:39.169Z,37.77
2023-06-16T18:10:07.125Z,33.60
2023-06-16T18:12:33.711Z,38.83
2023-06-16T18:15:00.278Z,37.17
2023-06-16T18:17:27.097Z,33.17
2023-06-16T18:19:53.676Z,33.37
2023-06-16T18:22:20.532Z,35.00
2023-06-16T18:24:47.056Z,30.03
2023-06-16T18:27:13.653Z,30.40
2023-06-16T18:29:40.739Z,33.53
2023-06-16T18:32:08.391Z,30.90
2023-06-16T18:34:35.107Z,30.50
2023-06-16T18:37:01.734Z,27.47
2023-06-16T18:39:31.112Z,28.53
2023-06-16T18:41:57.608Z,28.17
2023-06-16T18:44:24.141Z,27.13
2023-06-16T18:46:50.742Z,27.93
2023-06-16T18:49:17.264Z,31.27
2023-06-16T18:51:43.878Z,30.60
2023-06-16T18:54:10.540Z,31.10
2023-06-16T18:56:37.486Z,28.17
2023-06-16T18:59:04.441Z,25.07
2023-06-16T19:01:31.015Z,29.13
2023-06-16T19:03:57.795Z,25.43
2023-06-16T19:06:25.632Z,29.27
2023-06-16T19:08:53.022Z,29.23
2023-06-16T19:11:23.098Z,38.17
2023-06-16T19:13:49.793Z,38.40
2023-06-16T19:16:19.360Z,45.37
2023-06-16T19:18:46.700Z,50.43
2023-06-16T19:21:14.394Z,51.33
2023-06-16T19:23:41.261Z,54.07
2023-06-16T19:26:08.010Z,69.73
2023-06-16T19:28:55.849Z,77.97
2023-06-16T19:31:26.894Z,86.67
2023-06-16T19:33:54.029Z,98.17
2023-06-16T19:36:20.688Z,88.93
2023-06-16T19:38:47.407Z,94.83
2023-06-16T19:41:14.155Z,99.43
2023-06-16T19:43:41.665Z,96.63
2023-06-16T19:46:08.414Z,111.77
2023-06-16T19:48:35.033Z,107.07
2023-06-16T19:51:01.846Z,164.13
2023-06-16T19:53:28.998Z,165.97
2023-06-16T19:55:58.198Z,168.93
2023-06-16T19:58:24.834Z,181.93
2023-06-16T20:00:53.641Z,166.47
2023-06-16T20:03:20.566Z,159.07
2023-06-16T20:05:47.144Z,167.33
2023-06-16T20:08:14.583Z,189.83
2023-06-16T20:10:43.659Z,178.90
2023-06-16T20:13:12.413Z,163.83
2023-06-16T20:15:39.210Z,158.53
2023-06-16T20:18:05.866Z,206.00
2023-06-16T20:20:33.594Z,189.93
2023-06-16T20:23:01.629Z,200.23
2023-06-16T20:25:29.138Z,176.80
2023-06-16T20:27:55.730Z,139.57
2023-06-16T20:30:22.524Z,130.13
2023-06-16T20:32:50.718Z,124.13
2023-06-16T20:35:18.741Z,117.23
2023-06-16T20:37:50.564Z,139.17
2023-06-16T20:40:17.524Z,140.83
2023-06-16T20:42:47.680Z,142.53
2023-06-16T20:45:19.219Z,145.90
2023-06-16T20:47:50.788Z,135.83
2023-06-16T20:50:22.502Z,147.43
2023-06-16T20:52:51.465Z,142.70
2023-06-16T20:55:18.918Z,149.20
2023-06-16T20:57:46.004Z,154.27
2023-06-16T21:00:13.735Z,148.47
2023-06-16T21:02:40.660Z,185.27
2023-06-16T21:05:11.117Z,210.40
2023-06-16T21:07:45.203Z,241.67
2023-06-16T21:10:16.732Z,253.33
2023-06-16T21:12:43.691Z,272.17
2023-06-16T21:15:12.280Z,258.40
2023-06-16T21:17:41.990Z,269.40
2023-06-16T21:20:10.498Z,273.93
2023-06-16T21:22:37.950Z,264.50
2023-06-16T21:29:00.917Z,257.13
2023-06-16T21:31:27.438Z,257.80
2023-06-16T21:33:53.949Z,237.60
2023-06-16T21:36:20.551Z,247.70
2023-06-16T21:38:54.526Z,245.73
2023-06-16T21:41:21.192Z,251.17
2023-06-16T21:43:47.708Z,227.77
2023-06-16T21:46:14.326Z,230.17
2023-06-16T21:48:42.233Z,214.77
2023-06-16T21:51:09.037Z,211.77
2023-06-16T21:53:37.122Z,198.40
2023-06-16T21:56:03.911Z,177.53
2023-06-16T21:58:30.511Z,160.63
2023-06-16T22:00:57.028Z,120.57
2023-06-16T22:03:23.644Z,120.93
2023-06-16T22:05:50.437Z,102.43
2023-06-16T22:08:17.068Z,106.23
2023-06-16T22:10:43.748Z,97.83
2023-06-16T22:13:10.370Z,76.20
2023-06-16T22:15:36.913Z,81.87
2023-06-16T22:18:04.650Z,81.70
2023-06-16T22:20:31.307Z,81.70
2023-06-16T22:22:59.734Z,81.60
2023-06-16T22:25:26.612Z,73.13
2023-06-16T22:27:53.333Z,72.60
2023-06-16T22:30:22.098Z,74.77
2023-06-16T22:32:49.762Z,70.87
2023-06-16T22:35:16.472Z,71.67
2023-06-16T22:37:43.001Z,75.27
2023-06-16T22:40:11.202Z,69.93
2023-06-16T22:42:37.745Z,75.33
2023-06-16T22:45:04.517Z,76.27
2023-06-16T22:47:31.107Z,77.67
2023-06-16T22:49:57.750Z,94.40
2023-06-16T22:52:25.280Z,122.10
2023-06-16T22:54:51.967Z,145.73
2023-06-16T22:57:19.325Z,162.03
2023-06-16T22:59:45.893Z,184.23
2023-06-16T23:02:12.420Z,235.33
2023-06-16T23:04:38.979Z,237.27
2023-06-16T23:07:06.288Z,274.33
2023-06-16T23:09:33.017Z,293.50
2023-06-16T23:11:59.572Z,300.70
2023-06-16T23:14:26.141Z,289.23
2023-06-16T23:16:52.723Z,278.63
2023-06-16T23:19:19.232Z,272.93
2023-06-16T23:21:47.044Z,255.20
2023-06-16T23:24:13.674Z,248.30
2023-06-16T23:26:45.842Z,232.63
2023-06-16T23:29:17.281Z,211.63
2023-06-16T23:31:44.130Z,208.60
2023-06-16T23:34:10.902Z,201.47
2023-06-16T23:36:37.540Z,222.27
2023-06-16T23:39:04.281Z,208.73
2023-06-16T23:41:30.990Z,203.23
2023-06-16T23:43:58.115Z,213.10
2023-06-16T23:46:25.149Z,206.13
2023-06-16T23:48:51.968Z,379.70
2023-06-16T23:51:18.502Z,401.20
2023-06-16T23:53:45.523Z,312.57
2023-06-16T23:56:12.015Z,215.63
2023-06-16T23:58:38.585Z,261.70
